createdAt,value
2022-12-17T00:09:50.270Z,102422.81
2022-12-17T00:20:30.771Z,102424.41
2022-12-17T00:31:10.939Z,102442.13
2022-12-17T00:41:51.125Z,102450.47
2022-12-17T00:52:31.286Z,102450.88
2022-12-17T01:03:11.529Z,102461.16
2022-12-17T01:13:51.598Z,102455.81
2022-12-17T01:24:31.911Z,102469.34
2022-12-17T01:35:12.007Z,102487.03
2022-12-17T01:46:02.356Z,102503.31
2022-12-17T01:56:42.657Z,102510.91
2022-12-17T02:07:31.918Z,102513.59
2022-12-17T02:18:14.270Z,102522.13
2022-12-17T02:28:56.506Z,102523.63
2022-12-17T02:39:36.816Z,102527.47
2022-12-17T02:50:17.039Z,102529.53
2022-12-17T03:00:57.184Z,102549.00
2022-12-17T03:11:37.890Z,102559.16
2022-12-17T03:22:18.038Z,102554.09
2022-12-17T03:32:58.052Z,102552.38
2022-12-17T03:43:39.927Z,102550.59
2022-12-17T03:54:20.127Z,102559.31
2022-12-17T04:05:00.149Z,102551.22
2022-12-17T04:15:40.362Z,102552.19
2022-12-17T04:26:20.764Z,102563.50
2022-12-17T04:37:00.957Z,102570.84
2022-12-17T04:47:41.183Z,102582.13
2022-12-17T04:58:25.026Z,102581.03
2022-12-17T05:09:05.249Z,102581.03
2022-12-17T05:19:45.364Z,102578.22
2022-12-17T05:30:25.556Z,102581.41
2022-12-17T05:41:05.693Z,102586.88
2022-12-17T05:51:45.905Z,102587.97
2022-12-17T06:02:26.206Z,102602.84
2022-12-17T06:13:15.909Z,102610.75
2022-12-17T06:23:55.989Z,102628.31
2022-12-17T06:34:36.056Z,102629.00
2022-12-17T06:45:16.021Z,102636.84
2022-12-17T06:55:56.198Z,102651.56
2022-12-17T07:06:36.264Z,102670.25
2022-12-17T07:17:16.318Z,102684.22
2022-12-17T07:27:56.412Z,102684.50
2022-12-17T07:38:36.585Z,102690.03
2022-12-17T07:49:19.191Z,102699.06
2022-12-17T08:00:01.385Z,102716.84
2022-12-17T08:10:41.525Z,102725.88
2022-12-17T08:21:21.584Z,102718.28
2022-12-17T08:32:01.625Z,102737.44
2022-12-17T08:42:41.699Z,102756.84
2022-12-17T08:53:22.425Z,102765.34
2022-12-17T09:04:02.500Z,102768.13
2022-12-17T09:14:50.134Z,102777.09
2022-12-17T09:25:30.216Z,102797.94
2022-12-17T09:36:10.408Z,102810.22
2022-12-17T09:46:50.409Z,102801.25
2022-12-17T09:57:36.207Z,102806.03
2022-12-17T10:08:17.315Z,102823.03
2022-12-17T10:18:57.575Z,102843.16
2022-12-17T10:29:47.461Z,102845.25
2022-12-17T10:40:57.657Z,102839.94
2022-12-17T10:51:37.660Z,102825.88
2022-12-17T11:02:18.119Z,102834.97
2022-12-17T11:13:03.334Z,102847.75
2022-12-17T11:23:43.453Z,102862.09
2022-12-17T11:34:27.724Z,102851.94
2022-12-17T11:45:13.988Z,102844.03
2022-12-17T11:56:04.881Z,102840.28
2022-12-17T12:06:44.941Z,102819.53
2022-12-17T12:17:41.973Z,102833.91
2022-12-17T12:28:31.325Z,102844.75
2022-12-17T12:39:15.858Z,102842.72
2022-12-17T12:50:00.458Z,102837.00
2022-12-17T13:00:40.541Z,102831.44
2022-12-17T13:11:25.754Z,102844.13
2022-12-17T13:21:47.169Z,102823.97
2022-12-17T13:32:16.156Z,102819.34
2022-12-17T13:42:37.558Z,102812.03
2022-12-17T13:53:08.339Z,102815.81
2022-12-17T14:03:49.963Z,102848.69
2022-12-17T14:14:26.241Z,102849.50
2022-12-17T14:24:47.730Z,102844.41
2022-12-17T14:35:22.955Z,102855.66
2022-12-17T14:46:12.423Z,102850.00
2022-12-17T14:56:33.859Z,102869.00
2022-12-17T15:06:55.390Z,102873.19
2022-12-17T15:17:17.239Z,102864.47
2022-12-17T15:27:38.650Z,102875.34
2022-12-17T15:38:00.083Z,102872.72
2022-12-17T15:48:23.174Z,102892.34
2022-12-17T15:58:44.615Z,102886.47
2022-12-17T16:09:05.961Z,102887.44
2022-12-17T16:19:27.287Z,102893.13
2022-12-17T16:29:48.734Z,102902.44
2022-12-17T16:40:10.492Z,102898.22
2022-12-17T16:50:31.831Z,102897.91
2022-12-17T17:00:56.217Z,102905.91
2022-12-17T17:11:21.198Z,102914.53
2022-12-17T17:21:47.577Z,102915.84
2022-12-17T17:32:11.011Z,102939.50
2022-12-17T17:42:33.276Z,102940.78
2022-12-17T17:52:54.621Z,102960.84
2022-12-17T18:03:16.136Z,102960.69
2022-12-17T18:13:55.999Z,102964.00
2022-12-17T18:24:18.727Z,102973.50
2022-12-17T18:34:40.251Z,102978.59
2022-12-17T18:45:01.823Z,102983.91
2022-12-17T18:55:23.176Z,102975.25
2022-12-17T19:05:47.255Z,103008.44
2022-12-17T19:16:12.288Z,103012.78
2022-12-17T19:26:34.059Z,103017.25
2022-12-17T19:36:55.418Z,103016.19
2022-12-17T19:47:16.761Z,103027.03
2022-12-17T19:57:38.130Z,103030.00
2022-12-17T20:07:59.529Z,103022.56
2022-12-17T20:18:20.876Z,103029.38
2022-12-17T20:28:42.557Z,103032.63
2022-12-17T20:39:04.544Z,103035.50
2022-12-17T20:49:25.874Z,103046.47
2022-12-17T20:59:47.300Z,103034.03
2022-12-17T21:10:08.808Z,103049.16
2022-12-17T21:20:30.332Z,103059.66
2022-12-17T21:30:52.323Z,103064.81
2022-12-17T21:41:15.099Z,103091.69
2022-12-17T21:51:36.497Z,103080.88
2022-12-17T22:01:57.968Z,103070.91
2022-12-17T22:12:38.689Z,103073.53
2022-12-17T22:23:00.993Z,103069.94
2022-12-17T22:33:46.584Z,103093.44
2022-12-17T22:44:38.737Z,103097.09
2022-12-17T22:54:45.555Z,103081.03
2022-12-17T23:05:07.413Z,103080.38
2022-12-17T23:15:36.460Z,103079.47
2022-12-17T23:25:58.124Z,103091.31
2022-12-17T23:36:20.908Z,103108.28
2022-12-17T23:46:42.326Z,103120.13
2022-12-17T23:57:03.786Z,103123.16
